sensor_id;sensor_type;location;lat;lon;timestamp;pressure;altitude;pressure_sealevel;temperature;humidity
19112;BME280;9688;51.906;8.376;2023-07-31T00:01:02;100153.88;;;17.20;100.00
19112;BME280;9688;51.906;8.376;2023-07-31T00:03:49;100149.38;;;17.20;100.00
19112;BME280;9688;51.906;8.376;2023-07-31T00:06:34;100149.38;;;17.20;100.00
19112;BME280;9688;51.906;8.376;2023-07-31T00:09:22;100146.59;;;17.22;100.00
19112;BME280;9688;51.906;8.376;2023-07-31T00:12:08;100139.53;;;17.21;100.00
19112;BME280;9688;51.906;8.376;2023-07-31T00:14:54;100141.03;;;17.25;100.00
19112;BME280;9688;51.906;8.376;2023-07-31T00:17:40;100138.97;;;17.28;100.00
19112;BME280;9688;51.906;8.376;2023-07-31T00:20:26;100133.41;;;17.31;100.00
19112;BME280;9688;51.906;8.376;2023-07-31T00:23:11;100139.50;;;17.33;100.00
19112;BME280;9688;51.906;8.376;2023-07-31T00:25:59;100128.91;;;17.32;100.00
19112;BME280;9688;51.906;8.376;2023-07-31T00:28:44;100143.00;;;17.34;100.00
19112;BME280;9688;51.906;8.376;2023-07-31T00:31:30;100142.06;;;17.35;100.00
19112;BME280;9688;51.906;8.376;2023-07-31T00:34:16;100140.00;;;17.38;100.00
19112;BME280;9688;51.906;8.376;2023-07-31T00:37:03;100138.94;;;17.41;100.00
19112;BME280;9688;51.906;8.376;2023-07-31T00:39:48;100131.66;;;17.43;100.00
19112;BME280;9688;51.906;8.376;2023-07-31T00:42:35;100128.25;;;17.41;100.00
19112;BME280;9688;51.906;8.376;2023-07-31T00:45:23;100138.41;;;17.36;100.00
19112;BME280;9688;51.906;8.376;2023-07-31T00:48:11;100134.03;;;17.35;100.00
19112;BME280;9688;51.906;8.376;2023-07-31T00:50:57;100135.84;;;17.34;100.00
19112;BME280;9688;51.906;8.376;2023-07-31T00:53:43;100138.41;;;17.36;100.00
19112;BME280;9688;51.906;8.376;2023-07-31T00:56:30;100131.47;;;17.33;100.00
19112;BME280;9688;51.906;8.376;2023-07-31T00:59:17;100127.22;;;17.31;100.00
19112;BME280;9688;51.906;8.376;2023-07-31T01:02:05;100133.53;;;17.30;100.00
19112;BME280;9688;51.906;8.376;2023-07-31T01:04:51;100139.44;;;17.22;100.00
19112;BME280;9688;51.906;8.376;2023-07-31T01:07:44;100127.47;;;17.15;100.00
19112;BME280;9688;51.906;8.376;2023-07-31T01:10:34;100132.66;;;17.05;100.00
19112;BME280;9688;51.906;8.376;2023-07-31T01:13:23;100131.16;;;17.01;100.00
19112;BME280;9688;51.906;8.376;2023-07-31T01:16:11;100136.03;;;16.96;100.00
19112;BME280;9688;51.906;8.376;2023-07-31T01:18:56;100129.94;;;16.94;100.00
19112;BME280;9688;51.906;8.376;2023-07-31T01:22:02;100137.41;;;16.89;100.00
19112;BME280;9688;51.906;8.376;2023-07-31T01:25:10;100129.63;;;16.86;100.00
19112;BME280;9688;51.906;8.376;2023-07-31T01:28:07;100129.00;;;16.82;100.00
19112;BME280;9688;51.906;8.376;2023-07-31T01:30:55;100135.72;;;16.75;100.00
19112;BME280;9688;51.906;8.376;2023-07-31T01:33:44;100123.88;;;16.66;100.00
19112;BME280;9688;51.906;8.376;2023-07-31T01:36:30;100122.81;;;16.56;100.00
19112;BME280;9688;51.906;8.376;2023-07-31T01:39:16;100120.06;;;16.45;100.00
19112;BME280;9688;51.906;8.376;2023-07-31T01:42:02;100115.28;;;16.37;100.00
19112;BME280;9688;51.906;8.376;2023-07-31T01:44:50;100107.63;;;16.33;100.00
19112;BME280;9688;51.906;8.376;2023-07-31T01:47:36;100114.25;;;16.27;100.00
19112;BME280;9688;51.906;8.376;2023-07-31T01:50:21;100105.47;;;16.25;100.00
19112;BME280;9688;51.906;8.376;2023-07-31T01:53:07;100106.47;;;16.24;100.00
19112;BME280;9688;51.906;8.376;2023-07-31T01:55:54;100102.28;;;16.20;100.00
19112;BME280;9688;51.906;8.376;2023-07-31T01:58:39;100096.94;;;16.20;100.00
19112;BME280;9688;51.906;8.376;2023-07-31T02:01:26;100088.84;;;16.21;100.00
19112;BME280;9688;51.906;8.376;2023-07-31T02:04:12;100086.06;;;16.23;100.00
19112;BME280;9688;51.906;8.376;2023-07-31T02:06:58;100087.97;;;16.21;100.00
19112;BME280;9688;51.906;8.376;2023-07-31T02:09:45;100079.13;;;16.20;100.00
19112;BME280;9688;51.906;8.376;2023-07-31T02:12:32;100077.44;;;16.19;100.00
19112;BME280;9688;51.906;8.376;2023-07-31T02:15:18;100079.47;;;16.16;100.00
19112;BME280;9688;51.906;8.376;2023-07-31T02:18:05;100074.31;;;16.13;100.00
19112;BME280;9688;51.906;8.376;2023-07-31T02:20:51;100066.44;;;16.11;100.00
19112;BME280;9688;51.906;8.376;2023-07-31T02:23:37;100063.03;;;16.09;100.00
19112;BME280;9688;51.906;8.376;2023-07-31T02:26:23;100069.34;;;16.08;100.00
19112;BME280;9688;51.906;8.376;2023-07-31T02:29:09;100065.81;;;16.08;100.00
19112;BME280;9688;51.906;8.376;2023-07-31T02:31:55;100066.00;;;16.04;100.00
19112;BME280;9688;51.906;8.376;2023-07-31T02:34:42;100063.47;;;16.03;100.00
19112;BME280;9688;51.906;8.376;2023-07-31T02:37:28;100052.81;;;16.03;100.00
19112;BME280;9688;51.906;8.376;2023-07-31T02:40:14;100052.69;;;16.04;100.00
19112;BME280;9688;51.906;8.376;2023-07-31T02:43:00;100051.94;;;16.02;100.00
19112;BME280;9688;51.906;8.376;2023-07-31T02:45:48;100043.97;;;16.02;100.00
19112;BME280;9688;51.906;8.376;2023-07-31T02:48:36;100042.13;;;16.03;100.00
19112;BME280;9688;51.906;8.376;2023-07-31T02:51:23;100035.75;;;16.05;100.00
19112;BME280;9688;51.906;8.376;2023-07-31T02:54:09;100038.09;;;16.10;100.00
19112;BME280;9688;51.906;8.376;2023-07-31T02:56:55;100040.53;;;16.13;100.00
19112;BME280;9688;51.906;8.376;2023-07-31T02:59:41;100047.34;;;16.17;100.00
19112;BME280;9688;51.906;8.376;2023-07-31T03:02:27;100038.91;;;16.23;100.00
19112;BME280;9688;51.906;8.376;2023-07-31T03:05:13;100041.03;;;16.31;100.00
19112;BME280;9688;51.906;8.376;2023-07-31T03:08:00;100032.34;;;16.40;100.00
19112;BME280;9688;51.906;8.376;2023-07-31T03:10:46;100045.88;;;16.50;100.00
19112;BME280;9688;51.906;8.376;2023-07-31T03:13:32;100046.81;;;16.62;100.00
19112;BME280;9688;51.906;8.376;2023-07-31T03:16:18;100046.88;;;16.73;100.00
19112;BME280;9688;51.906;8.376;2023-07-31T03:19:04;100038.25;;;16.82;100.00
19112;BME280;9688;51.906;8.376;2023-07-31T03:21:49;100045.66;;;16.90;100.00
19112;BME280;9688;51.906;8.376;2023-07-31T03:24:37;100040.59;;;16.98;100.00
19112;BME280;9688;51.906;8.376;2023-07-31T03:27:23;100044.63;;;17.04;100.00
19112;BME280;9688;51.906;8.376;2023-07-31T03:30:09;100037.97;;;17.09;100.00
19112;BME280;9688;51.906;8.376;2023-07-31T03:32:55;100043.84;;;17.14;100.00
19112;BME280;9688;51.906;8.376;2023-07-31T03:35:41;100041.06;;;17.16;100.00
19112;BME280;9688;51.906;8.376;2023-07-31T03:38:27;100047.25;;;17.16;100.00
19112;BME280;9688;51.906;8.376;2023-07-31T03:41:14;100033.66;;;17.20;100.00
19112;BME280;9688;51.906;8.376;2023-07-31T03:44:00;100045.19;;;17.20;100.00
19112;BME280;9688;51.906;8.376;2023-07-31T03:46:46;100048.00;;;17.19;100.00
19112;BME280;9688;51.906;8.376;2023-07-31T03:49:32;100034.41;;;17.22;100.00
19112;BME280;9688;51.906;8.376;2023-07-31T03:52:17;100044.25;;;17.21;100.00
19112;BME280;9688;51.906;8.376;2023-07-31T03:55:04;100036.84;;;17.25;100.00
19112;BME280;9688;51.906;8.376;2023-07-31T03:57:52;100020.91;;;17.23;100.00
19112;BME280;9688;51.906;8.376;2023-07-31T04:00:40;100038.78;;;17.23;100.00
19112;BME280;9688;51.906;8.376;2023-07-31T04:03:25;100036.22;;;17.21;100.00
19112;BME280;9688;51.906;8.376;2023-07-31T04:06:11;100040.69;;;17.21;100.00
19112;BME280;9688;51.906;8.376;2023-07-31T04:08:57;100039.75;;;17.22;100.00
19112;BME280;9688;51.906;8.376;2023-07-31T04:11:42;100040.69;;;17.21;100.00
19112;BME280;9688;51.906;8.376;2023-07-31T04:14:30;100050.19;;;17.25;100.00
19112;BME280;9688;51.906;8.376;2023-07-31T04:17:15;100042.19;;;17.25;100.00
19112;BME280;9688;51.906;8.376;2023-07-31T04:20:03;100031.50;;;17.25;100.00
19112;BME280;9688;51.906;8.376;2023-07-31T04:22:49;100043.16;;;17.24;100.00
19112;BME280;9688;51.906;8.376;2023-07-31T04:25:35;100053.84;;;17.24;100.00
19112;BME280;9688;51.906;8.376;2023-07-31T04:28:21;100044.13;;;17.23;100.00
19112;BME280;9688;51.906;8.376;2023-07-31T04:31:08;100047.75;;;17.22;100.00
19112;BME280;9688;51.906;8.376;2023-07-31T04:33:54;100046.69;;;17.24;100.00
19112;BME280;9688;51.906;8.376;2023-07-31T04:36:40;100042.94;;;17.27;100.00
19112;BME280;9688;51.906;8.376;2023-07-31T04:39:26;100049.34;;;17.24;100.00
19112;BME280;9688;51.906;8.376;2023-07-31T04:42:11;100040.34;;;17.25;100.00
19112;BME280;9688;51.906;8.376;2023-07-31T04:44:57;100035.00;;;17.25;100.00
19112;BME280;9688;51.906;8.376;2023-07-31T04:47:44;100028.69;;;17.26;100.00
19112;BME280;9688;51.906;8.376;2023-07-31T04:50:30;100038.44;;;17.27;100.00
19112;BME280;9688;51.906;8.376;2023-07-31T04:53:16;100036.38;;;17.31;100.00
19112;BME280;9688;51.906;8.376;2023-07-31T04:56:02;100035.28;;;17.33;100.00
19112;BME280;9688;51.906;8.376;2023-07-31T04:58:48;100031.53;;;17.36;100.00
19112;BME280;9688;51.906;8.376;2023-07-31T05:01:34;100040.63;;;17.33;100.00
19112;BME280;9688;51.906;8.376;2023-07-31T05:04:21;100038.81;;;17.34;100.00
19112;BME280;9688;51.906;8.376;2023-07-31T05:07:07;100040.53;;;17.35;100.00
19112;BME280;9688;51.906;8.376;2023-07-31T05:09:53;100031.19;;;17.41;100.00
19112;BME280;9688;51.906;8.376;2023-07-31T05:12:38;100035.06;;;17.48;100.00
19112;BME280;9688;51.906;8.376;2023-07-31T05:15:25;100036.44;;;17.53;100.00
19112;BME280;9688;51.906;8.376;2023-07-31T05:18:10;100036.19;;;17.56;100.00
19112;BME280;9688;51.906;8.376;2023-07-31T05:20:57;100027.94;;;17.59;100.00
19112;BME280;9688;51.906;8.376;2023-07-31T05:23:43;100022.38;;;17.63;100.00
19112;BME280;9688;51.906;8.376;2023-07-31T05:26:29;100028.56;;;17.63;100.00
19112;BME280;9688;51.906;8.376;2023-07-31T05:29:15;100034.75;;;17.64;100.00
19112;BME280;9688;51.906;8.376;2023-07-31T05:32:01;100034.63;;;17.65;100.00
19112;BME280;9688;51.906;8.376;2023-07-31T05:34:46;100030.16;;;17.66;100.00
19112;BME280;9688;51.906;8.376;2023-07-31T05:37:33;100025.75;;;17.65;100.00
19112;BME280;9688;51.906;8.376;2023-07-31T05:40:19;100027.72;;;17.63;100.00
19112;BME280;9688;51.906;8.376;2023-07-31T05:43:05;100027.72;;;17.63;100.00
19112;BME280;9688;51.906;8.376;2023-07-31T05:45:52;100030.25;;;17.64;100.00
19112;BME280;9688;51.906;8.376;2023-07-31T05:48:38;100018.47;;;17.67;100.00
19112;BME280;9688;51.906;8.376;2023-07-31T05:51:24;100030.03;;;17.67;100.00
19112;BME280;9688;51.906;8.376;2023-07-31T05:54:14;100016.78;;;17.66;100.00
19112;BME280;9688;51.906;8.376;2023-07-31T05:57:00;100021.16;;;17.67;100.00
19112;BME280;9688;51.906;8.376;2023-07-31T05:59:46;100020.66;;;17.73;100.00
19112;BME280;9688;51.906;8.376;2023-07-31T06:02:33;100020.44;;;17.76;100.00
19112;BME280;9688;51.906;8.376;2023-07-31T06:05:22;100015.59;;;17.81;100.00
19112;BME280;9688;51.906;8.376;2023-07-31T06:08:08;100018.78;;;17.86;100.00
19112;BME280;9688;51.906;8.376;2023-07-31T06:10:56;100013.91;;;17.91;100.00
19112;BME280;9688;51.906;8.376;2023-07-31T06:13:42;100012.94;;;17.92;100.00
19112;BME280;9688;51.906;8.376;2023-07-31T06:16:29;100010.16;;;17.94;100.00
19112;BME280;9688;51.906;8.376;2023-07-31T06:19:15;100004.81;;;17.94;100.00
19112;BME280;9688;51.906;8.376;2023-07-31T06:22:01;100004.66;;;17.95;100.00
19112;BME280;9688;51.906;8.376;2023-07-31T06:24:47;100024.72;;;18.01;100.00
19112;BME280;9688;51.906;8.376;2023-07-31T06:27:34;100013.31;;;18.10;100.00
19112;BME280;9688;51.906;8.376;2023-07-31T06:30:20;100011.25;;;18.14;100.00
19112;BME280;9688;51.906;8.376;2023-07-31T06:33:06;100011.00;;;18.17;100.00
19112;BME280;9688;51.906;8.376;2023-07-31T06:35:54;100009.31;;;18.16;100.00
19112;BME280;9688;51.906;8.376;2023-07-31T06:38:40;100002.97;;;18.17;100.00
19112;BME280;9688;51.906;8.376;2023-07-31T06:41:26;99994.22;;;18.15;100.00
19112;BME280;9688;51.906;8.376;2023-07-31T06:44:14;99988.16;;;18.13;100.00
19112;BME280;9688;51.906;8.376;2023-07-31T06:46:59;99981.06;;;18.12;100.00
19112;BME280;9688;51.906;8.376;2023-07-31T06:49:46;99979.97;;;18.14;100.00
19112;BME280;9688;51.906;8.376;2023-07-31T06:52:32;99985.09;;;18.17;100.00
19112;BME280;9688;51.906;8.376;2023-07-31T06:55:19;99982.41;;;18.17;100.00
19112;BME280;9688;51.906;8.376;2023-07-31T06:58:05;99987.50;;;18.20;100.00
19112;BME280;9688;51.906;8.376;2023-07-31T07:00:53;99981.78;;;18.25;100.00
19112;BME280;9688;51.906;8.376;2023-07-31T07:03:39;99985.06;;;18.28;100.00
19112;BME280;9688;51.906;8.376;2023-07-31T07:06:24;99984.38;;;18.26;100.00
19112;BME280;9688;51.906;8.376;2023-07-31T07:09:11;99982.41;;;18.28;100.00
19112;BME280;9688;51.906;8.376;2023-07-31T07:11:58;99981.28;;;18.31;100.00
19112;BME280;9688;51.906;8.376;2023-07-31T07:14:44;99975.25;;;18.29;100.00
19112;BME280;9688;51.906;8.376;2023-07-31T07:17:34;99982.03;;;18.33;100.00
19112;BME280;9688;51.906;8.376;2023-07-31T07:20:20;99988.81;;;18.37;100.00
19112;BME280;9688;51.906;8.376;2023-07-31T07:23:31;99987.28;;;18.35;100.00
19112;BME280;9688;51.906;8.376;2023-07-31T07:26:17;99997.97;;;18.35;100.00
19112;BME280;9688;51.906;8.376;2023-07-31T07:29:03;100005.53;;;18.30;100.00
19112;BME280;9688;51.906;8.376;2023-07-31T07:31:52;100007.72;;;18.24;100.00
19112;BME280;9688;51.906;8.376;2023-07-31T07:34:39;100006.00;;;18.23;100.00
19112;BME280;9688;51.906;8.376;2023-07-31T07:37:25;100008.06;;;18.20;100.00
19112;BME280;9688;51.906;8.376;2023-07-31T07:40:11;100006.47;;;18.17;100.00
19112;BME280;9688;51.906;8.376;2023-07-31T07:42:59;99992.75;;;18.11;100.00
19112;BME280;9688;51.906;8.376;2023-07-31T07:45:46;99997.97;;;18.01;100.00
19112;BME280;9688;51.906;8.376;2023-07-31T07:48:34;99995.94;;;17.93;100.00
19112;BME280;9688;51.906;8.376;2023-07-31T07:51:24;99981.09;;;17.89;100.00
19112;BME280;9688;51.906;8.376;2023-07-31T07:54:11;99983.91;;;17.88;100.00
19112;BME280;9688;51.906;8.376;2023-07-31T07:56:59;99986.59;;;17.88;100.00
19112;BME280;9688;51.906;8.376;2023-07-31T07:59:45;99983.91;;;17.88;100.00
19112;BME280;9688;51.906;8.376;2023-07-31T08:02:31;99981.34;;;17.86;100.00
19112;BME280;9688;51.906;8.376;2023-07-31T08:05:17;99981.22;;;17.88;100.00
19112;BME280;9688;51.906;8.376;2023-07-31T08:08:04;99974.91;;;17.89;100.00
19112;BME280;9688;51.906;8.376;2023-07-31T08:10:53;99966.63;;;17.92;100.00
19112;BME280;9688;51.906;8.376;2023-07-31T08:13:39;99960.94;;;17.96;100.00
19112;BME280;9688;51.906;8.376;2023-07-31T08:16:26;99960.19;;;18.05;100.00
19112;BME280;9688;51.906;8.376;2023-07-31T08:19:12;99957.75;;;18.14;100.00
19112;BME280;9688;51.906;8.376;2023-07-31T08:21:58;99953.47;;;18.22;100.00
19112;BME280;9688;51.906;8.376;2023-07-31T08:24:45;99947.00;;;18.25;100.00
19112;BME280;9688;51.906;8.376;2023-07-31T08:27:31;99947.75;;;18.27;100.00
19112;BME280;9688;51.906;8.376;2023-07-31T08:30:17;99938.72;;;18.28;100.00
19112;BME280;9688;51.906;8.376;2023-07-31T08:33:03;99931.56;;;18.28;100.00
19112;BME280;9688;51.906;8.376;2023-07-31T08:35:49;99927.19;;;18.27;100.00
19112;BME280;9688;51.906;8.376;2023-07-31T08:38:35;99920.72;;;18.30;100.00
19112;BME280;9688;51.906;8.376;2023-07-31T08:41:23;99923.16;;;18.33;100.00
19112;BME280;9688;51.906;8.376;2023-07-31T08:44:10;99924.69;;;18.47;100.00
19112;BME280;9688;51.906;8.376;2023-07-31T08:46:57;99923.59;;;18.49;100.00
19112;BME280;9688;51.906;8.376;2023-07-31T08:49:43;99924.19;;;18.53;100.00
19112;BME280;9688;51.906;8.376;2023-07-31T08:52:32;99916.28;;;18.52;100.00
19112;BME280;9688;51.906;8.376;2023-07-31T08:55:18;99920.91;;;18.49;100.00
19112;BME280;9688;51.906;8.376;2023-07-31T08:58:10;99920.91;;;18.49;100.00
19112;BME280;9688;51.906;8.376;2023-07-31T09:00:59;99923.13;;;18.44;100.00
19112;BME280;9688;51.906;8.376;2023-07-31T09:03:46;99917.78;;;18.44;100.00
19112;BME280;9688;51.906;8.376;2023-07-31T09:06:33;99923.25;;;18.43;100.00
19112;BME280;9688;51.906;8.376;2023-07-31T09:09:21;99919.22;;;18.48;100.00
19112;BME280;9688;51.906;8.376;2023-07-31T09:12:08;99914.56;;;18.50;100.00
19112;BME280;9688;51.906;8.376;2023-07-31T09:14:56;99918.56;;;18.56;100.00
19112;BME280;9688;51.906;8.376;2023-07-31T09:17:47;99916.94;;;18.65;100.00
19112;BME280;9688;51.906;8.376;2023-07-31T09:20:33;99904.88;;;18.70;100.00
19112;BME280;9688;51.906;8.376;2023-07-31T09:23:21;99917.06;;;18.75;100.00
19112;BME280;9688;51.906;8.376;2023-07-31T09:26:09;99909.25;;;18.83;100.00
19112;BME280;9688;51.906;8.376;2023-07-31T09:28:55;99905.53;;;18.95;100.00
19112;BME280;9688;51.906;8.376;2023-07-31T09:31:43;99904.75;;;19.04;100.00
19112;BME280;9688;51.906;8.376;2023-07-31T09:34:30;99905.25;;;19.19;100.00
19112;BME280;9688;51.906;8.376;2023-07-31T09:37:23;99908.00;;;19.29;100.00
19112;BME280;9688;51.906;8.376;2023-07-31T09:40:25;99904.72;;;19.25;100.00
19112;BME280;9688;51.906;8.376;2023-07-31T09:43:12;99894.28;;;19.22;100.00
19112;BME280;9688;51.906;8.376;2023-07-31T09:45:59;99896.41;;;19.28;100.00
19112;BME280;9688;51.906;8.376;2023-07-31T09:48:47;99896.41;;;19.28;100.00
19112;BME280;9688;51.906;8.376;2023-07-31T09:51:33;99888.53;;;19.27;100.00
19112;BME280;9688;51.906;8.376;2023-07-31T09:54:22;99888.34;;;19.19;100.00
19112;BME280;9688;51.906;8.376;2023-07-31T09:57:10;99889.56;;;19.14;100.00
19112;BME280;9688;51.906;8.376;2023-07-31T09:59:57;99884.09;;;19.16;100.00
19112;BME280;9688;51.906;8.376;2023-07-31T10:02:46;99880.56;;;19.15;100.00
19112;BME280;9688;51.906;8.376;2023-07-31T10:05:36;99881.41;;;19.16;100.00
19112;BME280;9688;51.906;8.376;2023-07-31T10:08:27;99879.84;;;19.13;100.00
19112;BME280;9688;51.906;8.376;2023-07-31T10:11:16;99883.09;;;19.17;100.00
19112;BME280;9688;51.906;8.376;2023-07-31T10:14:03;99879.38;;;19.29;100.00
19112;BME280;9688;51.906;8.376;2023-07-31T10:16:51;99883.66;;;19.42;100.00
19112;BME280;9688;51.906;8.376;2023-07-31T10:19:41;99881.31;;;19.48;100.00
19112;BME280;9688;51.906;8.376;2023-07-31T10:22:30;99875.50;;;19.43;100.00
19112;BME280;9688;51.906;8.376;2023-07-31T10:25:19;99876.09;;;19.26;100.00
19112;BME280;9688;51.906;8.376;2023-07-31T10:28:08;99889.06;;;19.21;100.00
19112;BME280;9688;51.906;8.376;2023-07-31T10:31:20;99875.75;;;19.09;100.00
19112;BME280;9688;51.906;8.376;2023-07-31T10:34:07;99864.41;;;19.06;100.00
19112;BME280;9688;51.906;8.376;2023-07-31T10:37:23;99875.66;;;19.00;100.00
19112;BME280;9688;51.906;8.376;2023-07-31T10:40:15;99871.72;;;19.04;100.00
19112;BME280;9688;51.906;8.376;2023-07-31T10:43:02;99863.38;;;19.18;100.00
19112;BME280;9688;51.906;8.376;2023-07-31T10:45:48;99861.31;;;19.31;100.00
19112;BME280;9688;51.906;8.376;2023-07-31T10:48:35;99863.38;;;19.49;100.00
19112;BME280;9688;51.906;8.376;2023-07-31T10:51:21;99870.03;;;19.54;100.00
19112;BME280;9688;51.906;8.376;2023-07-31T10:54:11;99868.91;;;19.57;100.00
19112;BME280;9688;51.906;8.376;2023-07-31T10:57:00;99861.56;;;19.59;100.00
19112;BME280;9688;51.906;8.376;2023-07-31T10:59:47;99862.56;;;19.58;100.00
19112;BME280;9688;51.906;8.376;2023-07-31T11:02:33;99854.53;;;19.58;100.00
19112;BME280;9688;51.906;8.376;2023-07-31T11:05:41;99864.13;;;19.60;100.00
19112;BME280;9688;51.906;8.376;2023-07-31T11:08:29;99864.00;;;19.62;100.00
19112;BME280;9688;51.906;8.376;2023-07-31T11:11:16;99858.47;;;19.54;100.00
19112;BME280;9688;51.906;8.376;2023-07-31T11:14:06;99858.13;;;19.47;100.00
19112;BME280;9688;51.906;8.376;2023-07-31T11:16:57;99853.91;;;19.45;100.00
19112;BME280;9688;51.906;8.376;2023-07-31T11:19:42;99852.47;;;19.41;100.00
19112;BME280;9688;51.906;8.376;2023-07-31T11:22:30;99851.75;;;19.38;100.00
19112;BME280;9688;51.906;8.376;2023-07-31T11:25:18;99856.13;;;19.39;100.00
19112;BME280;9688;51.906;8.376;2023-07-31T11:28:05;99854.34;;;19.50;100.00
19112;BME280;9688;51.906;8.376;2023-07-31T11:30:55;99854.06;;;19.53;100.00
19112;BME280;9688;51.906;8.376;2023-07-31T11:33:44;99860.81;;;19.68;100.00
19112;BME280;9688;51.906;8.376;2023-07-31T11:36:30;99851.25;;;19.85;100.00
19112;BME280;9688;51.906;8.376;2023-07-31T11:39:16;99842.25;;;19.96;100.00
19112;BME280;9688;51.906;8.376;2023-07-31T11:42:04;99847.88;;;20.02;100.00
19112;BME280;9688;51.906;8.376;2023-07-31T11:44:50;99850.72;;;20.01;100.00
19112;BME280;9688;51.906;8.376;2023-07-31T11:47:38;99830.78;;;20.03;100.00
19112;BME280;9688;51.906;8.376;2023-07-31T11:50:24;99836.44;;;20.00;100.00
19112;BME280;9688;51.906;8.376;2023-07-31T11:53:10;99831.09;;;20.10;100.00
19112;BME280;9688;51.906;8.376;2023-07-31T11:55:57;99830.94;;;20.02;100.00
19112;BME280;9688;51.906;8.376;2023-07-31T11:58:49;99832.47;;;19.95;100.00
19112;BME280;9688;51.906;8.376;2023-07-31T12:01:37;99832.03;;;19.90;100.00
19112;BME280;9688;51.906;8.376;2023-07-31T12:04:25;99826.56;;;19.91;100.00
19112;BME280;9688;51.906;8.376;2023-07-31T12:07:12;99840.38;;;19.87;100.00
19112;BME280;9688;51.906;8.376;2023-07-31T12:09:58;99823.59;;;19.85;100.00
19112;BME280;9688;51.906;8.376;2023-07-31T12:12:44;99818.50;;;19.91;100.00
19112;BME280;9688;51.906;8.376;2023-07-31T12:15:42;99826.72;;;19.99;100.00
19112;BME280;9688;51.906;8.376;2023-07-31T12:18:33;99830.78;;;19.94;100.00
19112;BME280;9688;51.906;8.376;2023-07-31T12:21:21;99826.72;;;19.99;100.00
19112;BME280;9688;51.906;8.376;2023-07-31T12:24:07;99824.31;;;19.96;100.00
19112;BME280;9688;51.906;8.376;2023-07-31T12:26:53;99830.06;;;19.92;100.00
19112;BME280;9688;51.906;8.376;2023-07-31T12:29:41;99822.31;;;19.79;100.00
19112;BME280;9688;51.906;8.376;2023-07-31T12:32:30;99830.59;;;19.66;100.00
19112;BME280;9688;51.906;8.376;2023-07-31T12:35:17;99830.25;;;19.59;100.00
19112;BME280;9688;51.906;8.376;2023-07-31T12:38:04;99826.72;;;19.59;100.00
19112;BME280;9688;51.906;8.376;2023-07-31T12:40:50;99837.59;;;19.57;100.00
19112;BME280;9688;51.906;8.376;2023-07-31T12:43:37;99844.78;;;19.57;100.00
19112;BME280;9688;51.906;8.376;2023-07-31T12:46:23;99831.91;;;19.51;100.00
19112;BME280;9688;51.906;8.376;2023-07-31T12:49:09;99836.13;;;19.44;100.00
19112;BME280;9688;51.906;8.376;2023-07-31T12:51:57;99838.47;;;19.37;100.00
19112;BME280;9688;51.906;8.376;2023-07-31T12:54:45;99834.97;;;19.36;100.00
19112;BME280;9688;51.906;8.376;2023-07-31T12:57:30;99829.47;;;19.38;100.00
19112;BME280;9688;51.906;8.376;2023-07-31T13:00:16;99830.38;;;19.48;100.00
19112;BME280;9688;51.906;8.376;2023-07-31T13:03:02;99814.22;;;19.69;100.00
19112;BME280;9688;51.906;8.376;2023-07-31T13:05:48;99808.47;;;20.03;100.00
19112;BME280;9688;51.906;8.376;2023-07-31T13:08:36;99806.13;;;20.29;100.00
19112;BME280;9688;51.906;8.376;2023-07-31T13:11:24;99807.66;;;20.51;100.00
19112;BME280;9688;51.906;8.376;2023-07-31T13:14:10;99806.94;;;20.68;100.00
19112;BME280;9688;51.906;8.376;2023-07-31T13:17:01;99807.91;;;20.87;100.00
19112;BME280;9688;51.906;8.376;2023-07-31T13:19:50;99804.47;;;21.04;100.00
19112;BME280;9688;51.906;8.376;2023-07-31T13:22:37;99791.53;;;21.17;100.00
19112;BME280;9688;51.906;8.376;2023-07-31T13:25:23;99793.44;;;21.35;100.00
19112;BME280;9688;51.906;8.376;2023-07-31T13:28:10;99778.06;;;21.37;100.00
19112;BME280;9688;51.906;8.376;2023-07-31T13:30:57;99780.13;;;21.43;100.00
19112;BME280;9688;51.906;8.376;2023-07-31T13:33:44;99777.53;;;21.51;100.00
19112;BME280;9688;51.906;8.376;2023-07-31T13:36:33;99773.94;;;21.60;100.00
19112;BME280;9688;51.906;8.376;2023-07-31T13:39:21;99759.56;;;21.70;100.00
19112;BME280;9688;51.906;8.376;2023-07-31T13:42:08;99763.34;;;21.77;100.00
19112;BME280;9688;51.906;8.376;2023-07-31T13:44:58;99751.59;;;21.78;100.00
19112;BME280;9688;51.906;8.376;2023-07-31T13:47:45;99751.34;;;21.89;100.00
19112;BME280;9688;51.906;8.376;2023-07-31T13:50:31;99765.38;;;21.93;99.30
19112;BME280;9688;51.906;8.376;2023-07-31T13:53:18;99767.97;;;22.02;98.88
19112;BME280;9688;51.906;8.376;2023-07-31T13:56:04;99764.22;;;22.13;98.40
19112;BME280;9688;51.906;8.376;2023-07-31T13:58:51;99768.56;;;22.24;98.17
19112;BME280;9688;51.906;8.376;2023-07-31T14:01:38;99759.47;;;22.25;97.27
19112;BME280;9688;51.906;8.376;2023-07-31T14:04:25;99767.31;;;22.18;97.39
19112;BME280;9688;51.906;8.376;2023-07-31T14:07:11;99761.97;;;22.09;97.71
19112;BME280;9688;51.906;8.376;2023-07-31T14:09:57;99754.13;;;21.97;98.01
19112;BME280;9688;51.906;8.376;2023-07-31T14:12:43;99753.84;;;22.00;97.65
19112;BME280;9688;51.906;8.376;2023-07-31T14:15:30;99747.38;;;21.93;97.67
19112;BME280;9688;51.906;8.376;2023-07-31T14:18:17;99751.00;;;21.84;97.60
19112;BME280;9688;51.906;8.376;2023-07-31T14:21:03;99751.91;;;21.75;97.95
19112;BME280;9688;51.906;8.376;2023-07-31T14:23:49;99760.19;;;21.64;98.44
19112;BME280;9688;51.906;8.376;2023-07-31T14:26:35;99766.25;;;21.48;99.08
19112;BME280;9688;51.906;8.376;2023-07-31T14:29:21;99776.47;;;21.34;99.31
19112;BME280;9688;51.906;8.376;2023-07-31T14:32:10;99776.97;;;21.20;99.65
19112;BME280;9688;51.906;8.376;2023-07-31T14:34:57;99780.38;;;21.12;100.00
19112;BME280;9688;51.906;8.376;2023-07-31T14:37:44;99763.69;;;21.09;100.00
19112;BME280;9688;51.906;8.376;2023-07-31T14:40:30;99774.72;;;21.06;100.00